9W66 / VT-JBS 7700 Squawk Report (20th of September, 2017)

Aircraft B738 Reg No. VT-JBS Age 7 years old
Model 737 Jet engines 2 First flight 07-10-10
Registered 13-10-10 Rollout 23-09-10 Delivered 16-10-10
Construction No. 36698 Line No. 3433 Series 85R
ADSHEX 8005A3 Airline name Jet Airways Owner Pacific Triangle Leasing 2 Ltd
Airfield based Mumbai-Chhatarpati Shivaji Int'l~Maharashtra~VT First tracked 2011-04-26 21:48:02

Flight history for VT-JBS

Route Flight No Date Playback
Abu Dhabi Intl (AUH) - Cochin (COK) 9W575 2017-10-22 07:56:00
Pune (PNQ) - Abu Dhabi Intl (AUH) 9W514 2017-10-22 02:05:00
Abu Dhabi Intl (AUH) - Pune (PNQ) 9W513 2017-10-21 22:12:00
Indira Gandhi Intl (DEL) - Abu Dhabi Intl (AUH) 9W212 2017-10-21 16:07:00
Srinagar (SXR) - Indira Gandhi Intl (DEL) 9W638 2017-10-21 11:02:00
Chhatrapati Shivaji Intl (BOM) - Dehradun (DED) - Srinagar (SXR) 9W701 2017-10-21 10:05:00
Suvarnabhumi Intl (BKK) - Chhatrapati Shivaji Intl (BOM) 9W61 2017-10-21 03:28:00
Indira Gandhi Intl (DEL) - Suvarnabhumi Intl (BKK) 9W64 2017-10-20 22:12:00
Netaji Subhash Chandra Bose Intl (CCU) - Indira Gandhi Intl (DEL) 9W904 2017-10-20 14:56:00
Indira Gandhi Intl (DEL) - Netaji Subhash Chandra Bose Intl (CCU) 9W903 2017-10-20 10:48:00
Chhatrapati Shivaji Intl (BOM) - Indira Gandhi Intl (DEL) 9W339 2017-10-19 23:13:00
Bagdogra (IXB) - Netaji Subhash Chandra Bose Intl (CCU) - Chhatrapati Shivaji Intl (BOM) 9W610 2017-10-19 14:53:00
Chhatrapati Shivaji Intl (BOM) - Netaji Subhash Chandra Bose Intl (CCU) - Bagdogra (IXB) 9W609 2017-10-19 10:21:00
Bhuj (BHJ) - Chhatrapati Shivaji Intl (BOM) 9W2536 2017-10-19 03:56:00
Chhatrapati Shivaji Intl (BOM) - Bhuj (BHJ) 9W2535 2017-10-19 03:15:00
Indira Gandhi Intl (DEL) - Chhatrapati Shivaji Intl (BOM) 9W304 2017-10-19 00:45:00
Bhopal (BHO) - Indira Gandhi Intl (DEL) 9W2640 2017-10-18 16:44:00
Indira Gandhi Intl (DEL) - Bhopal (BHO) 9W927 2017-10-18 16:19:00
Jorhat (JRH) - Lokpriya Gopinath Bordoloi International Airport (GAU) - Netaji Subhash Chandra Bose Intl (CCU) - Lucknow (LKO) - Indira Gandhi Intl (DEL) 9W771 2017-10-18 13:10:00
Imphal (IMF) - Netaji Subhash Chandra Bose Intl (CCU) 9W9804 2017-10-18 07:29:00
Time Lat Lon Altitude Heading Speed Vertical Rate
2017-09-20 13:37:36 GMT 13.71327 100.74572 350 195 156 -832
2017-09-20 13:37:31 GMT 13.71629 100.74651 400 195 157 -832
2017-09-20 13:37:31 GMT 13.71629 100.74651 400 195 157 -832
2017-09-20 13:37:27 GMT 13.71849 100.74709 450 195 157 -832
2017-09-20 13:37:18 GMT 13.72623 100.74913 600 195 157 -832
2017-09-20 13:37:10 GMT 13.73193 100.75060 700 195 156 -832
2017-09-20 13:37:09 GMT 13.73193 100.75060 700 195 156 -832
2017-09-20 13:37:06 GMT 13.73407 100.75118 750 195 155 -768
2017-09-20 13:36:58 GMT 13.73978 100.75268 850 195 155 -768
2017-09-20 13:36:59 GMT 13.73978 100.75268 850 195 155 -768
2017-09-20 13:36:58 GMT 13.73978 100.75268 850 195 155 -768
2017-09-20 13:36:54 GMT 13.74194 100.75325 900 195 156 -832
2017-09-20 13:36:48 GMT 13.74710 100.75457 975 195 157 -832
2017-09-20 13:36:48 GMT 13.74710 100.75457 975 195 157 -832
2017-09-20 13:36:44 GMT 13.74953 100.75524 1,025 195 158 -832
2017-09-20 13:36:39 GMT 13.75288 100.75610 1,100 195 159 -768
2017-09-20 13:36:35 GMT 13.75647 100.75706 1,175 195 159 -832
2017-09-20 13:36:33 GMT 13.75791 100.75745 1,200 195 159 -832
2017-09-20 13:36:29 GMT 13.75996 100.75798 1,225 195 160 -768
2017-09-20 13:36:24 GMT 13.76385 100.75902 1,300 195 161 -704
2017-09-20 13:36:22 GMT 13.76605 100.75959 1,325 195 162 -768
2017-09-20 13:36:18 GMT 13.76857 100.76029 1,375 195 162 -832
2017-09-20 13:36:12 GMT 13.77264 100.76135 1,450 195 164 -832
2017-09-20 13:36:12 GMT 13.77264 100.76135 1,450 195 164 -832
2017-09-20 13:36:10 GMT 13.77411 100.76172 1,475 195 166 -832
2017-09-20 13:36:08 GMT 13.77616 100.76222 1,525 195 168 -768
2017-09-20 13:36:02 GMT 13.78039 100.76332 1,600 195 171 -960
2017-09-20 13:35:57 GMT 13.78398 100.76429 1,650 195 175 -832
2017-09-20 13:35:51 GMT 13.78880 100.76556 1,750 195 180 -832
2017-09-20 13:35:47 GMT 13.79250 100.76650 1,800 195 184 -960
2017-09-20 13:35:40 GMT 13.79810 100.76793 1,900 195 187 -1152
2017-09-20 13:35:36 GMT 13.80171 100.76887 2,000 195 188 -1216
2017-09-20 13:35:29 GMT 13.80725 100.77034 2,100 195 189 -576
2017-09-20 13:35:24 GMT 13.81093 100.77132 2,150 195 190 128
2017-09-20 13:35:20 GMT 13.81457 100.77233 2,125 195 192 0
2017-09-20 13:35:18 GMT 13.81657 100.77287 2,125 195 192 0
2017-09-20 13:35:14 GMT 13.81998 100.77375 2,125 195 192 0
2017-09-20 13:35:09 GMT 13.82497 100.77513 2,125 196 192 0
2017-09-20 13:35:07 GMT 13.82634 100.77550 2,125 196 192 0
2017-09-20 13:35:04 GMT 13.82931 100.77631 2,125 196 192 0
2017-09-20 13:34:58 GMT 13.83351 100.77744 2,125 195 192 0
2017-09-20 13:34:56 GMT 13.83637 100.77820 2,125 194 192 0
2017-09-20 13:34:52 GMT 13.83897 100.77887 2,125 193 192 0
2017-09-20 13:34:49 GMT 13.84203 100.77952 2,125 189 192 0
2017-09-20 13:34:45 GMT 13.84621 100.78010 2,125 184 191 0
2017-09-20 13:34:41 GMT 13.84948 100.78029 2,125 179 192 64
2017-09-20 13:34:39 GMT 13.85133 100.78029 2,125 174 190 0
2017-09-20 13:34:36 GMT 13.85390 100.78009 2,150 170 190 64
2017-09-20 13:34:34 GMT 13.85562 100.77980 2,125 166 190 64
2017-09-20 13:34:32 GMT 13.85710 100.77948 2,125 163 190 0
2017-09-20 13:34:30 GMT 13.85829 100.77910 2,125 162 189 0
2017-09-20 13:34:27 GMT 13.86037 100.77841 2,125 161 189 0
2017-09-20 13:34:25 GMT 13.86333 100.77745 2,125 161 189 0
2017-09-20 13:34:23 GMT 13.86489 100.77691 2,125 161 189 0
2017-09-20 13:34:20 GMT 13.86598 100.77655 2,125 161 189 0
2017-09-20 13:34:18 GMT 13.86991 100.77523 2,125 161 188 0
2017-09-20 13:34:14 GMT 13.87243 100.77436 2,125 161 188 0
2017-09-20 13:34:12 GMT 13.87399 100.77385 2,125 161 188 0
2017-09-20 13:34:09 GMT 13.87522 100.77344 2,125 161 188 0
2017-09-20 13:34:06 GMT 13.87825 100.77243 2,125 161 188 0
2017-09-20 13:34:03 GMT 13.88155 100.77132 2,125 161 188 0
2017-09-20 13:34:00 GMT 13.88406 100.77046 2,125 162 188 0
2017-09-20 13:33:55 GMT 13.88814 100.76911 2,125 162 188 0
2017-09-20 13:33:52 GMT 13.89068 100.76824 2,100 162 188 0
2017-09-20 13:33:49 GMT 13.89276 100.76755 2,100 161 189 0
2017-09-20 13:33:43 GMT 13.89780 100.76589 2,100 161 191 -128
2017-09-20 13:33:41 GMT 13.89971 100.76520 2,125 161 191 -320
2017-09-20 13:33:38 GMT 13.90175 100.76453 2,125 161 192 -704
2017-09-20 13:33:33 GMT 13.90695 100.76281 2,200 161 192 -768
2017-09-20 13:33:30 GMT 13.90920 100.76202 2,225 161 192 -832
2017-09-20 13:33:27 GMT 13.91111 100.76140 2,275 162 191 -960
2017-09-20 13:33:21 GMT 13.91675 100.75955 2,375 162 190 -1216
2017-09-20 13:33:19 GMT 13.91833 100.75899 2,400 162 190 -1216
2017-09-20 13:33:17 GMT 13.92005 100.75846 2,450 162 189 -1216
2017-09-20 13:33:10 GMT 13.92581 100.75656 2,575 162 189 -1088
2017-09-20 13:33:08 GMT 13.92750 100.75599 2,625 162 189 -1024
2017-09-20 13:33:06 GMT 13.92973 100.75528 2,650 162 189 -1024
2017-09-20 13:33:05 GMT 13.92973 100.75528 2,650 162 189 -1024
2017-09-20 13:32:59 GMT 13.93495 100.75359 2,750 162 190 -1088
2017-09-20 13:32:57 GMT 13.93699 100.75297 2,800 163 190 -1088
2017-09-20 13:32:55 GMT 13.93886 100.75239 2,850 163 190 -1088
2017-09-20 13:32:48 GMT 13.94463 100.75060 2,950 163 191 -1088
2017-09-20 13:32:46 GMT 13.94631 100.75007 3,000 163 191 -1088
2017-09-20 13:32:44 GMT 13.94803 100.74954 3,025 162 191 -1088
2017-09-20 13:32:35 GMT 13.95552 100.74723 3,175 162 191 -1024
2017-09-20 13:32:35 GMT 13.95552 100.74723 3,175 162 191 -1024
2017-09-20 13:32:33 GMT 13.95749 100.74662 3,225 163 192 -1024
2017-09-20 13:32:24 GMT 13.96500 100.74425 3,375 163 192 -1088
2017-09-20 13:32:22 GMT 13.96763 100.74342 3,425 163 193 -1024
2017-09-20 13:32:13 GMT 13.97438 100.74135 3,550 163 194 -768
2017-09-20 13:32:10 GMT 13.97717 100.74053 3,575 163 195 -768
2017-09-20 13:32:02 GMT 13.98420 100.73846 3,675 164 199 -832
2017-09-20 13:31:58 GMT 13.98679 100.73767 3,725 164 200 -832
2017-09-20 13:31:52 GMT 13.99318 100.73581 3,825 163 201 -960
2017-09-20 13:31:49 GMT 13.99463 100.73538 3,850 163 202 -960
2017-09-20 13:31:47 GMT 13.99667 100.73478 3,900 163 202 -960
2017-09-20 13:31:41 GMT 14.00329 100.73273 4,000 160 204 -1088
2017-09-20 13:31:39 GMT 14.00464 100.73227 4,025 158 203 -1088
2017-09-20 13:31:36 GMT 14.00679 100.73146 4,075 153 202 -1280
2017-09-20 13:31:30 GMT 14.01204 100.72839 4,225 139 198 -1280
2017-09-20 13:31:28 GMT 14.01348 100.72719 4,250 137 198 -1152
2017-09-20 13:31:25 GMT 14.01517 100.72559 4,300 135 197 -1088
2017-09-20 13:31:19 GMT 14.01949 100.72111 4,425 134 198 -1024
2017-09-20 13:31:17 GMT 14.02079 100.71976 4,450 134 198 -1024
2017-09-20 13:31:14 GMT 14.02219 100.71827 4,475 134 200 -1024
2017-09-20 13:31:08 GMT 14.02651 100.71374 4,575 133 201 -960
2017-09-20 13:31:06 GMT 14.02805 100.71210 4,625 134 202 -960
2017-09-20 13:31:03 GMT 14.02936 100.71071 4,650 134 202 -1024
2017-09-20 13:30:57 GMT 14.03361 100.70618 4,775 134 202 -1280
2017-09-20 13:30:55 GMT 14.03527 100.70444 4,825 134 202 -1344
2017-09-20 13:30:52 GMT 14.03643 100.70319 4,875 133 202 -1408
2017-09-20 13:30:46 GMT 14.04103 100.69827 5,025 133 201 -1088
2017-09-20 13:30:44 GMT 14.04253 100.69668 5,050 133 202 -576
2017-09-20 13:30:42 GMT 14.04378 100.69538 5,075 133 203 -256
2017-09-20 13:30:35 GMT 14.04821 100.69066 5,100 133 206 0
2017-09-20 13:30:31 GMT 14.05119 100.68747 5,100 133 208 0
2017-09-20 13:30:26 GMT 14.05421 100.68425 5,100 133 211 0
2017-09-20 13:30:24 GMT 14.05550 100.68288 5,100 133 212 -64
2017-09-20 13:30:19 GMT 14.06022 100.67780 5,125 133 218 -576
2017-09-20 13:30:13 GMT 14.06323 100.67454 5,175 133 220 -640
2017-09-20 13:30:09 GMT 14.06607 100.67151 5,200 133 222 -704
2017-09-20 13:30:06 GMT 14.06785 100.66960 5,250 133 223 -768
2017-09-20 13:30:04 GMT 14.06897 100.66835 5,250 133 224 -768
2017-09-20 13:30:02 GMT 14.07088 100.66638 5,300 133 226 -896
2017-09-20 13:29:58 GMT 14.07404 100.66291 5,350 133 227 -1088
2017-09-20 13:29:54 GMT 14.07687 100.65986 5,425 133 228 -1088
2017-09-20 13:29:51 GMT 14.07889 100.65770 5,475 133 229 -1152
2017-09-20 13:29:46 GMT 14.08210 100.65418 5,550 133 231 -1152
2017-09-20 13:29:43 GMT 14.08466 100.65139 5,625 133 233 -1088
2017-09-20 13:29:40 GMT 14.08713 100.64874 5,675 133 234 -1088
2017-09-20 13:29:36 GMT 14.09061 100.64490 5,775 133 235 -1088
2017-09-20 13:29:33 GMT 14.09212 100.64329 5,800 133 237 -1024
2017-09-20 13:29:31 GMT 14.09285 100.64244 5,825 133 237 -1024
2017-09-20 13:29:29 GMT 14.09639 100.63857 5,900 133 237 -1024
2017-09-20 13:29:24 GMT 14.09843 100.63638 5,950 133 237 -1024
2017-09-20 13:29:21 GMT 14.10068 100.63391 6,000 133 237 -960
2017-09-20 13:29:17 GMT 14.10416 100.63008 6,075 133 238 -704
2017-09-20 13:29:13 GMT 14.10690 100.62714 6,100 133 238 -512
2017-09-20 13:29:11 GMT 14.10910 100.62474 6,125 133 238 -512
2017-09-20 13:29:05 GMT 14.11273 100.62074 6,175 132 239 -1152
2017-09-20 13:29:02 GMT 14.11529 100.61790 6,250 132 239 -1216
2017-09-20 13:29:00 GMT 14.11716 100.61582 6,300 132 241 -1216
2017-09-20 13:28:55 GMT 14.12074 100.61183 6,375 132 242 -1216
2017-09-20 13:28:51 GMT 14.12421 100.60801 6,475 132 244 -1216
2017-09-20 13:28:49 GMT 14.12590 100.60616 6,525 132 246 -1216
2017-09-20 13:28:48 GMT 14.12544 100.60664 6,500 132 245 -1280
2017-09-20 13:28:43 GMT 14.12954 100.60210 6,625 132 247 -1344
2017-09-20 13:28:41 GMT 14.13199 100.59939 6,675 132 249 -1344
2017-09-20 13:28:38 GMT 14.13517 100.59583 6,775 132 250 -1408
2017-09-20 13:28:33 GMT 14.13904 100.59153 6,875 132 251 -1536
2017-09-20 13:28:30 GMT 14.14057 100.58986 6,925 132 252 -1600
2017-09-20 13:28:28 GMT 14.14206 100.58817 6,975 132 253 -1664
2017-09-20 13:28:26 GMT 14.14406 100.58595 7,050 132 253 -1728
2017-09-20 13:28:21 GMT 14.14783 100.58182 7,175 132 254 -1664
2017-09-20 13:28:19 GMT 14.14943 100.58002 7,225 133 254 -1664
2017-09-20 13:28:16 GMT 14.15114 100.57820 7,275 132 255 -1664
2017-09-20 13:28:14 GMT 14.15314 100.57595 7,350 133 256 -1600
2017-09-20 13:28:10 GMT 14.15671 100.57202 7,475 133 257 -1664
2017-09-20 13:28:06 GMT 14.15918 100.56932 7,550 132 258 -1856
2017-09-20 13:28:04 GMT 14.16197 100.56629 7,650 133 258 -1984
2017-09-20 13:27:59 GMT 14.16554 100.56231 7,800 133 258 -1856
2017-09-20 13:27:56 GMT 14.16794 100.55969 7,875 133 258 -1664
2017-09-20 13:27:54 GMT 14.16884 100.55871 7,900 133 260 -1536
2017-09-20 13:27:52 GMT 14.17117 100.55620 7,975 133 261 -1280
2017-09-20 13:27:48 GMT 14.17474 100.55227 8,075 133 264 -1280
2017-09-20 13:27:43 GMT 14.17809 100.54861 8,150 133 266 -1408
2017-09-20 13:27:41 GMT 14.18065 100.54582 8,225 132 268 -1408
2017-09-20 13:27:37 GMT 14.18394 100.54214 8,300 132 271 -1280
2017-09-20 13:27:33 GMT 14.18707 100.53863 8,375 132 273 -1344
2017-09-20 13:27:30 GMT 14.19033 100.53497 8,475 131 273 -1600
2017-09-20 13:27:24 GMT 14.19517 100.52929 8,625 127 273 -1600
2017-09-20 13:27:22 GMT 14.19635 100.52774 8,650 124 272 -1792
2017-09-20 13:27:19 GMT 14.19878 100.52410 8,750 118 270 -2048
2017-09-20 13:27:15 GMT 14.20113 100.51941 8,900 112 269 -1792
2017-09-20 13:27:11 GMT 14.20281 100.51536 9,000 111 269 -1280
2017-09-20 13:27:07 GMT 14.20490 100.51011 9,075 111 272 -640
2017-09-20 13:27:04 GMT 14.20642 100.50615 9,100 111 275 -448
2017-09-20 13:27:02 GMT 14.20686 100.50505 9,125 111 275 -448
2017-09-20 13:27:00 GMT 14.20802 100.50203 9,150 111 277 -512
2017-09-20 13:26:55 GMT 14.21016 100.49647 9,175 111 280 -640
2017-09-20 13:26:52 GMT 14.21196 100.49185 9,225 111 283 -768
2017-09-20 13:26:49 GMT 14.21324 100.48847 9,250 111 285 -1024
2017-09-20 13:26:44 GMT 14.21528 100.48317 9,325 111 286 -1344
2017-09-20 13:26:40 GMT 14.21736 100.47769 9,425 111 287 -1856
2017-09-20 13:26:38 GMT 14.21850 100.47479 9,500 111 286 -2048
2017-09-20 13:26:31 GMT 14.22171 100.46636 9,725 111 286 -2240
2017-09-20 13:26:29 GMT 14.22264 100.46385 9,800 111 285 -2304
2017-09-20 13:26:26 GMT 14.22423 100.45965 9,925 111 284 -2240
2017-09-20 13:26:22 GMT 14.22592 100.45510 10,050 111 283 -2176
2017-09-20 13:26:20 GMT 14.22762 100.45070 10,175 111 283 -2176
2017-09-20 13:26:16 GMT 14.22930 100.44617 10,300 111 282 -2176
2017-09-20 13:26:11 GMT 14.23139 100.44067 10,450 111 281 -2176
2017-09-20 13:26:09 GMT 14.23265 100.43740 10,525 111 280 -2304
2017-09-20 13:26:05 GMT 14.23476 100.43209 10,700 112 279 -2368
2017-09-20 13:26:01 GMT 14.23656 100.42752 10,825 112 278 -2432
2017-09-20 13:25:59 GMT 14.23760 100.42494 10,925 112 277 -2368
2017-09-20 13:25:57 GMT 14.23778 100.42446 10,925 112 277 -2240
2017-09-20 13:25:54 GMT 14.24007 100.41883 11,075 112 277 -1280
2017-09-20 13:25:50 GMT 14.24219 100.41354 11,150 113 280 -896
2017-09-20 13:25:47 GMT 14.24312 100.41138 11,175 113 281 -896
2017-09-20 13:25:43 GMT 14.24583 100.40481 11,275 113 283 -1344
2017-09-20 13:25:38 GMT 14.24812 100.39937 11,375 113 283 -1600
2017-09-20 13:25:36 GMT 14.24890 100.39761 11,425 113 283 -1600
2017-09-20 13:25:32 GMT 14.25151 100.39141 11,550 113 285 -1472
2017-09-20 13:25:26 GMT 14.25476 100.38397 11,675 114 286 -1344
2017-09-20 13:25:20 GMT 14.25774 100.37712 11,800 114 287 -1344
2017-09-20 13:25:15 GMT 14.26053 100.37076 11,925 114 287 -1536
2017-09-20 13:25:09 GMT 14.26382 100.36328 12,075 114 288 -1472
2017-09-20 13:25:04 GMT 14.26658 100.35688 12,175 113 288 -1408
2017-09-20 13:24:58 GMT 14.26950 100.34993 12,300 111 287 -1536
2017-09-20 13:24:53 GMT 14.27197 100.34325 12,450 104 284 -1920
2017-09-20 13:24:47 GMT 14.27371 100.33501 12,625 95 282 -1664
2017-09-20 13:24:43 GMT 14.27422 100.32937 12,725 93 283 -1600
2017-09-20 13:24:43 GMT 14.27422 100.32937 12,725 93 283 -1600
2017-09-20 13:24:41 GMT 14.27427 100.32869 12,750 93 283 -1600
2017-09-20 13:24:35 GMT 14.27473 100.32006 12,925 93 283 -1792
2017-09-20 13:24:31 GMT 14.27509 100.31427 13,025 93 283 -1600
2017-09-20 13:24:25 GMT 14.27563 100.30484 13,225 93 283 -1728
2017-09-20 13:24:21 GMT 14.27595 100.29997 13,325 93 283 -1728
2017-09-20 13:24:12 GMT 14.27678 100.28675 13,575 93 283 -1600
2017-09-20 13:24:10 GMT 14.27687 100.28527 13,625 93 283 -1536
2017-09-20 13:24:03 GMT 14.27756 100.27544 13,800 94 284 -1536
2017-09-20 13:23:59 GMT 14.27822 100.26499 13,975 93 288 -1088
2017-09-20 13:23:52 GMT 14.27861 100.25967 14,075 93 288 -1088
2017-09-20 13:23:48 GMT 14.27884 100.25640 14,125 93 290 -960
2017-09-20 13:23:44 GMT 14.27925 100.24953 14,200 93 290 -960
2017-09-20 13:23:41 GMT 14.27953 100.24537 14,250 93 291 -1088
2017-09-20 13:23:38 GMT 14.27975 100.24148 14,300 93 292 -1216
2017-09-20 13:23:37 GMT 14.27980 100.24063 14,300 93 293 -1280
2017-09-20 13:23:33 GMT 14.28021 100.23424 14,400 93 294 -1280
2017-09-20 13:23:30 GMT 14.28050 100.22991 14,475 93 295 -1280
2017-09-20 13:23:26 GMT 14.28081 100.22524 14,525 93 296 -1344
2017-09-20 13:23:19 GMT 14.28153 100.21468 14,700 94 297 -1536
2017-09-20 13:23:16 GMT 14.28181 100.21015 14,775 94 297 -1536
2017-09-20 13:23:08 GMT 14.28260 100.19854 14,975 94 298 -1600
2017-09-20 13:23:06 GMT 14.28278 100.19640 15,025 94 299 -1600
2017-09-20 13:23:04 GMT 14.28297 100.19367 15,075 94 299 -1600
2017-09-20 13:22:59 GMT 14.28355 100.18560 15,225 94 299 -1664
2017-09-20 13:22:57 GMT 14.28381 100.18259 15,275 94 299 -1664
2017-09-20 13:22:55 GMT 14.28390 100.18119 15,300 94 299 -1664
2017-09-20 13:22:53 GMT 14.28420 100.17789 15,375 94 299 -1664
2017-09-20 13:22:50 GMT 14.28442 100.17448 15,425 94 299 -1600
2017-09-20 13:22:46 GMT 14.28506 100.16680 15,575 94 300 -1472
2017-09-20 13:22:43 GMT 14.28521 100.16491 15,600 94 300 -1472
2017-09-20 13:22:41 GMT 14.28553 100.16033 15,675 94 301 -1408
2017-09-20 13:22:35 GMT 14.28626 100.15104 15,825 94 303 -1216
2017-09-20 13:22:33 GMT 14.28637 100.14944 15,825 94 303 -1216
2017-09-20 13:22:30 GMT 14.28671 100.14497 15,900 93 305 -1088
2017-09-20 13:22:24 GMT 14.28725 100.13638 16,000 90 309 -896
2017-09-20 13:22:22 GMT 14.28740 100.13361 16,025 92 308 -896
2017-09-20 13:22:18 GMT 14.28763 100.12745 16,075 90 309 -896
2017-09-20 13:22:12 GMT 14.28754 100.11917 16,175 82 308 -1216
2017-09-20 13:22:09 GMT 14.28702 100.11460 16,225 78 308 -1280
2017-09-20 13:22:01 GMT 14.28423 100.10342 16,375 71 312 -1408
2017-09-20 13:21:57 GMT 14.28259 100.09847 16,450 71 312 -1408
2017-09-20 13:21:50 GMT 14.27920 100.08829 16,600 70 315 -1088
2017-09-20 13:21:47 GMT 14.27733 100.08261 16,675 70 317 -1024
2017-09-20 13:21:45 GMT 14.27631 100.07962 16,700 70 317 -1152
2017-09-20 13:21:40 GMT 14.27389 100.07262 16,800 70 319 -1280
2017-09-20 13:21:34 GMT 14.27110 100.06457 16,925 70 320 -1344
2017-09-20 13:21:29 GMT 14.26826 100.05668 17,050 69 322 -1536
2017-09-20 13:21:25 GMT 14.26631 100.05119 17,150 69 323 -1472
2017-09-20 13:21:18 GMT 14.26295 100.04194 17,275 69 323 -1280
2017-09-20 13:21:13 GMT 14.25980 100.03307 17,400 69 327 -1088
2017-09-20 13:21:06 GMT 14.25696 100.02521 17,500 69 328 -1344
2017-09-20 13:21:03 GMT 14.25476 100.01919 17,575 69 329 -1408
2017-09-20 13:20:56 GMT 14.25122 100.00946 17,725 69 332 -1536
2017-09-20 13:20:57 GMT 14.25122 100.00946 17,725 69 332 -1536
2017-09-20 13:20:56 GMT 14.25122 100.00946 17,725 69 332 -1536
2017-09-20 13:20:55 GMT 14.25122 100.00946 17,725 69 330 -1472
2017-09-20 13:20:50 GMT 14.24771 99.99988 17,900 69 332 -1536
2017-09-20 13:20:46 GMT 14.24515 99.99273 18,000 69 334 -1408
2017-09-20 13:20:44 GMT 14.24515 99.99273 18,000 69 334 -1472
2017-09-20 13:20:41 GMT 14.24286 99.98648 18,100 69 334 -1408
2017-09-20 13:20:35 GMT 14.23956 99.97753 18,225 69 336 -1472
2017-09-20 13:20:29 GMT 14.23656 99.96927 18,350 69 337 -1536
2017-09-20 13:20:24 GMT 14.23357 99.96095 18,500 69 338 -1472
2017-09-20 13:20:24 GMT 14.23357 99.96095 18,500 69 338 -1472
2017-09-20 13:20:17 GMT 14.23041 99.95219 18,625 69 339 -1536
2017-09-20 13:20:13 GMT 14.22716 99.94310 18,775 69 341 -1152
2017-09-20 13:20:13 GMT 14.22771 99.94462 18,750 69 341 -1152
2017-09-20 13:20:07 GMT 14.22473 99.93638 18,850 69 344 -448
2017-09-20 13:20:02 GMT 14.22138 99.92697 18,875 69 349 -384
2017-09-20 13:20:02 GMT 14.22138 99.92697 18,875 69 349 -384
2017-09-20 13:19:56 GMT 14.21860 99.91933 18,925 69 353 -448
2017-09-20 13:19:51 GMT 14.21507 99.90948 18,975 69 358 -512
2017-09-20 13:19:51 GMT 14.21507 99.90948 18,975 69 358 -512
2017-09-20 13:19:45 GMT 14.21233 99.90181 19,000 70 363 -448
2017-09-20 13:19:40 GMT 14.20881 99.89189 19,050 70 368 -320
2017-09-20 13:19:40 GMT 14.20881 99.89189 19,050 70 368 -320
2017-09-20 13:19:35 GMT 14.20611 99.88389 19,075 73 375 -448
2017-09-20 13:19:29 GMT 14.20332 99.87363 19,125 81 377 -960
2017-09-20 13:19:29 GMT 14.20332 99.87363 19,125 81 377 -960
2017-09-20 13:19:23 GMT 14.20183 99.86360 19,225 88 381 -1664
2017-09-20 13:19:18 GMT 14.20166 99.85327 19,375 95 381 -2816
2017-09-20 13:19:18 GMT 14.20166 99.85327 19,375 95 381 -2816
2017-09-20 13:19:13 GMT 14.20253 99.84493 19,550 101 383 -3456
2017-09-20 13:19:07 GMT 14.20500 99.83437 19,950 108 376 -4032
2017-09-20 13:19:07 GMT 14.20500 99.83437 19,950 108 376 -4032
2017-09-20 13:19:02 GMT 14.20774 99.82611 20,250 110 371 -3840
2017-09-20 13:18:56 GMT 14.21147 99.81590 20,600 110 366 -3776
2017-09-20 13:18:56 GMT 14.21147 99.81590 20,600 110 366 -3776
2017-09-20 13:18:51 GMT 14.21448 99.80757 20,900 109 361 -3648
2017-09-20 13:18:45 GMT 14.21785 99.79802 21,225 109 358 -3328
2017-09-20 13:18:45 GMT 14.21785 99.79802 21,225 109 358 -3328
2017-09-20 13:18:40 GMT 14.22061 99.79014 21,475 109 356 -2624
2017-09-20 13:18:34 GMT 14.22390 99.78072 21,675 109 356 -1792
2017-09-20 13:18:29 GMT 14.22678 99.77244 21,825 109 356 -1920
2017-09-20 13:18:22 GMT 14.23059 99.76135 22,025 109 356 -2048
2017-09-20 13:18:16 GMT 14.23395 99.75157 22,225 109 356 -1984
2017-09-20 13:18:12 GMT 14.23623 99.74487 22,375 108 356 -1856
2017-09-20 13:18:07 GMT 14.23879 99.73730 22,500 108 357 -1856
2017-09-20 13:18:00 GMT 14.24256 99.72589 22,700 108 357 -2048
2017-09-20 13:17:56 GMT 14.24475 99.71948 22,850 108 356 -2176
2017-09-20 13:17:50 GMT 14.24812 99.70936 23,050 108 356 -1984
2017-09-20 13:17:45 GMT 14.25057 99.70213 23,200 108 356 -1856
2017-09-20 13:17:39 GMT 14.25394 99.69203 23,375 109 357 -1856
2017-09-20 13:17:34 GMT 14.25648 99.68450 23,500 109 357 -1920
2017-09-20 13:17:28 GMT 14.25988 99.67452 23,675 109 358 -1472
2017-09-20 13:17:11 GMT 14.26927 99.64690 24,100 108 364 -1152
2017-09-20 13:17:05 GMT 14.27257 99.63709 24,200 108 364 -1152
2017-09-20 13:17:01 GMT 14.27473 99.63067 24,275 108 366 -1152
2017-09-20 13:16:55 GMT 14.27818 99.62046 24,400 108 370 -1216
2017-09-20 13:16:49 GMT 14.28108 99.61162 24,500 108 370 -1728
2017-09-20 13:16:44 GMT 14.28410 99.60262 24,650 108 370 -2240
2017-09-20 13:16:39 GMT 14.28702 99.59381 24,850 108 369 -1664
2017-09-20 13:16:33 GMT 14.29056 99.58330 24,975 109 373 -448
2017-09-20 13:16:25 GMT 14.29447 99.57165 25,025 109 376 -512
2017-09-20 13:16:22 GMT 14.29674 99.56502 25,050 109 382 -512
2017-09-20 13:16:16 GMT 14.29982 99.55589 25,100 109 386 -512
2017-09-20 13:16:11 GMT 14.30328 99.54565 25,150 109 390 -512
2017-09-20 13:16:04 GMT 14.30685 99.53509 25,200 109 394 -576
2017-09-20 13:15:59 GMT 14.31024 99.52510 25,250 109 399 -832
2017-09-20 13:15:55 GMT 14.31249 99.51845 25,300 109 402 -1088
2017-09-20 13:15:49 GMT 14.31668 99.50611 25,450 109 405 -2112
2017-09-20 13:15:43 GMT 14.31981 99.49683 25,600 109 405 -2176
2017-09-20 13:15:38 GMT 14.32329 99.48679 25,800 109 406 -2368
2017-09-20 13:15:33 GMT 14.32622 99.47822 25,975 109 407 -2304
2017-09-20 13:15:27 GMT 14.33004 99.46703 26,200 109 407 -2176
2017-09-20 13:15:22 GMT 14.33322 99.45771 26,375 109 408 -2240
2017-09-20 13:15:16 GMT 14.33702 99.44651 26,575 108 409 -2368
2017-09-20 13:15:11 GMT 14.33981 99.43820 26,750 108 409 -2240
2017-09-20 13:15:05 GMT 14.34368 99.42656 26,950 108 411 -2112
2017-09-20 13:15:00 GMT 14.34689 99.41697 27,125 108 412 -2112
2017-09-20 13:14:53 GMT 14.35131 99.40357 27,375 108 413 -2112
2017-09-20 13:14:49 GMT 14.35373 99.39629 27,500 108 413 -2048
2017-09-20 13:14:43 GMT 14.35744 99.38507 27,675 108 416 -1984
2017-09-20 13:14:38 GMT 14.36055 99.37569 27,825 108 417 -2048
2017-09-20 13:14:31 GMT 14.36486 99.36271 28,050 108 419 -1856
2017-09-20 13:14:27 GMT 14.36728 99.35553 28,150 109 421 -1664
2017-09-20 13:14:21 GMT 14.37105 99.34455 28,325 110 422 -1984
2017-09-20 13:14:16 GMT 14.37468 99.33477 28,475 113 424 -2432
2017-09-20 13:14:09 GMT 14.37994 99.32253 28,725 114 425 -2496
2017-09-20 13:14:05 GMT 14.38362 99.31404 28,900 114 425 -2240
2017-09-20 13:13:58 GMT 14.38811 99.30386 29,100 114 427 -2112
2017-09-20 13:13:53 GMT 14.39323 99.29235 29,300 115 428 -2240
2017-09-20 13:13:48 GMT 14.39722 99.28392 29,450 117 430 -2176
2017-09-20 13:13:43 GMT 14.40184 99.27478 29,625 118 433 -2240
2017-09-20 13:13:39 GMT 14.40564 99.26754 29,750 118 433 -2240
2017-09-20 13:13:26 GMT 14.41804 99.24386 30,200 118 438 -2176
2017-09-20 13:13:12 GMT 14.43242 99.21672 30,725 118 438 -2176
2017-09-20 13:13:10 GMT 14.43434 99.21303 30,800 118 439 -2176
2017-09-20 13:13:10 GMT 14.43434 99.21303 30,800 118 439 -2176
2017-09-20 13:13:03 GMT 14.44002 99.20242 30,975 118 439 -2112
2017-09-20 13:12:59 GMT 14.44502 99.19305 31,150 118 439 -2112
2017-09-20 13:12:59 GMT 14.44502 99.19305 31,150 118 439 -2112
2017-09-20 13:12:53 GMT 14.45009 99.18346 31,325 118 441 -2112
2017-09-20 13:12:48 GMT 14.45531 99.17373 31,500 119 441 -2176
2017-09-20 13:12:48 GMT 14.45531 99.17373 31,500 119 441 -2176
2017-09-20 13:12:42 GMT 14.46094 99.16371 31,675 123 441 -2240
2017-09-20 13:12:37 GMT 14.46718 99.15436 31,850 129 442 -2240
2017-09-20 13:12:37 GMT 14.46718 99.15436 31,850 129 442 -2240
We lost coverage of the aircraft here for a total of 33 minutes
2017-09-20 12:39:17 GMT 16.43660 95.52343 36,975 117 429 0
2017-09-20 12:37:27 GMT 16.53575 95.32302 36,975 117 427 0
2017-09-20 12:37:15 GMT 16.54671 95.30090 36,975 117 428 0
2017-09-20 12:36:54 GMT 16.56561 95.26274 37,000 117 429 0
2017-09-20 12:36:43 GMT 16.57626 95.24125 37,000 117 430 0
We lost coverage of the aircraft here for a total of 5 minutes
2017-09-20 12:31:25 GMT 16.89354 94.66008 37,000 128 448 0
2017-09-20 12:30:53 GMT 16.93608 94.60543 37,000 128 448 0
2017-09-20 12:30:41 GMT 16.95163 94.58540 37,000 128 448 0
2017-09-20 12:30:29 GMT 16.96651 94.56622 37,000 128 448 0
2017-09-20 12:30:18 GMT 16.98128 94.54716 37,000 128 448 64
2017-09-20 12:29:46 GMT 17.02327 94.49292 37,000 128 448 0
2017-09-20 12:29:36 GMT 17.03635 94.47610 37,000 128 448 0
2017-09-20 12:29:24 GMT 17.05171 94.45628 37,000 128 447 0
2017-09-20 12:29:09 GMT 17.07056 94.43192 37,000 128 446 0
2017-09-20 12:28:59 GMT 17.08472 94.41366 37,000 128 446 64
2017-09-20 12:28:34 GMT 17.11703 94.37168 37,000 128 446 0
2017-09-20 12:26:58 GMT 17.23983 94.21262 37,000 128 443 0
We lost coverage of the aircraft here for a total of 19 minutes
2017-09-20 12:08:21 GMT 18.67662 92.32253 36,975 128 447 0
2017-09-20 12:08:16 GMT 18.68290 92.31412 37,000 128 447 0
2017-09-20 12:07:51 GMT 18.71470 92.27157 36,975 128 447 0
2017-09-20 12:07:40 GMT 18.72766 92.25426 37,000 128 448 0
2017-09-20 12:06:40 GMT 18.79894 92.15906 37,000 128 449 0
2017-09-20 12:06:32 GMT 18.80859 92.14618 37,000 128 449 0
2017-09-20 12:06:22 GMT 18.82382 92.12585 37,000 128 449 0
2017-09-20 12:06:11 GMT 18.83762 92.10746 37,000 128 450 0
2017-09-20 12:05:59 GMT 18.85245 92.08760 37,000 128 450 0
2017-09-20 12:05:48 GMT 18.86664 92.06863 36,975 128 450 64
2017-09-20 12:05:36 GMT 18.88159 92.04855 36,975 127 451 -64
2017-09-20 12:05:26 GMT 18.89516 92.03031 37,000 127 451 0
2017-09-20 12:05:14 GMT 18.91136 92.00844 37,000 127 452 0
2017-09-20 12:05:03 GMT 18.92647 91.98784 37,000 127 452 0
2017-09-20 12:04:49 GMT 18.94075 91.96832 37,000 127 451 0
2017-09-20 12:04:36 GMT 18.95993 91.94213 37,000 127 452 0
2017-09-20 12:04:18 GMT 18.98028 91.91442 37,000 127 452 0
2017-09-20 12:04:14 GMT 18.98898 91.90253 37,000 127 452 0
2017-09-20 12:04:01 GMT 19.00273 91.88386 36,975 127 452 0
2017-09-20 12:03:50 GMT 19.02718 91.85036 36,975 127 453 0
2017-09-20 12:03:37 GMT 19.03316 91.84216 36,975 127 454 0
2017-09-20 12:03:27 GMT 19.04823 91.82152 37,000 127 454 0
2017-09-20 12:03:17 GMT 19.06091 91.80411 37,000 127 455 0
2017-09-20 12:03:01 GMT 19.08279 91.77415 37,000 127 457 0
2017-09-20 12:02:52 GMT 19.09093 91.76306 37,000 127 457 0
2017-09-20 12:02:43 GMT 19.10727 91.74083 37,000 127 457 0
2017-09-20 12:01:02 GMT 19.23725 91.56216 37,000 127 458 0
2017-09-20 12:00:56 GMT 19.24255 91.55477 36,975 127 458 0
2017-09-20 12:00:45 GMT 19.26196 91.52813 36,975 127 458 0
2017-09-20 12:00:30 GMT 19.28040 91.50288 37,000 127 458 0
2017-09-20 12:00:15 GMT 19.30485 91.46908 37,000 127 457 0
2017-09-20 11:59:56 GMT 19.31964 91.44860 37,000 127 457 0
2017-09-20 11:59:44 GMT 19.33556 91.42647 37,000 127 456 0
2017-09-20 11:59:31 GMT 19.35195 91.40375 37,000 127 456 0
2017-09-20 11:59:20 GMT 19.36615 91.38408 37,000 127 455 0
2017-09-20 11:59:08 GMT 19.38119 91.36340 37,000 127 454 0
2017-09-20 11:58:58 GMT 19.39458 91.34489 37,000 127 454 0
2017-09-20 11:58:47 GMT 19.41179 91.32125 37,000 127 453 0
2017-09-20 11:58:33 GMT 19.42635 91.30114 37,000 127 453 0
2017-09-20 11:58:21 GMT 19.43985 91.28246 37,000 127 453 0
2017-09-20 11:58:12 GMT 19.45487 91.26176 37,000 127 452 0
2017-09-20 11:58:00 GMT 19.46889 91.24230 37,000 127 452 0
2017-09-20 11:57:48 GMT 19.48411 91.22138 37,000 127 451 0
2017-09-20 11:57:38 GMT 19.49868 91.20110 37,000 127 450 0
2017-09-20 11:57:24 GMT 19.51758 91.17500 37,000 127 450 0
2017-09-20 11:57:11 GMT 19.53081 91.15666 36,975 127 449 0
2017-09-20 11:57:09 GMT 19.54042 91.14322 36,975 127 449 0
2017-09-20 11:56:57 GMT 19.54701 91.13409 37,000 127 449 0
2017-09-20 11:56:47 GMT 19.56024 91.11595 36,975 127 449 0
2017-09-20 11:56:37 GMT 19.57416 91.09672 37,000 127 449 0
2017-09-20 11:56:22 GMT 19.59281 91.07067 37,000 127 449 0
2017-09-20 11:56:15 GMT 19.60175 91.05838 37,000 127 449 0
2017-09-20 11:56:03 GMT 19.61655 91.03766 37,000 127 449 0
2017-09-20 11:55:56 GMT 19.63429 91.01309 37,000 127 450 0
2017-09-20 11:55:52 GMT 19.63885 91.00675 37,000 127 450 0
2017-09-20 11:55:12 GMT 19.68146 90.94762 37,000 127 451 0
2017-09-20 11:54:59 GMT 19.69728 90.92565 36,975 127 451 0
2017-09-20 11:54:47 GMT 19.71427 90.90203 36,975 127 451 0
2017-09-20 11:54:35 GMT 19.73035 90.87964 37,000 127 451 64
2017-09-20 11:54:21 GMT 19.74660 90.85708 37,000 127 451 64
2017-09-20 11:54:10 GMT 19.76033 90.83810 37,000 127 452 0
2017-09-20 11:53:57 GMT 19.77626 90.81588 36,975 127 452 0
2017-09-20 11:53:12 GMT 19.83330 90.73643 36,975 127 458 0
2017-09-20 11:53:07 GMT 19.83984 90.72731 37,000 127 459 0
2017-09-20 11:52:57 GMT 19.85406 90.70737 37,000 127 459 0
2017-09-20 11:52:44 GMT 19.86987 90.68537 37,000 127 457 0
2017-09-20 11:52:31 GMT 19.89139 90.65535 37,000 127 456 0
2017-09-20 11:52:18 GMT 19.90685 90.63371 37,000 127 456 0
2017-09-20 11:52:03 GMT 19.92524 90.60804 37,000 127 455 0
2017-09-20 11:51:50 GMT 19.93863 90.58934 37,000 126 455 0
2017-09-20 11:51:37 GMT 19.95795 90.56226 37,000 127 454 0
2017-09-20 11:51:23 GMT 19.97264 90.54162 37,000 126 454 0
2017-09-20 11:51:12 GMT 19.98660 90.52205 37,000 126 454 0
2017-09-20 11:51:01 GMT 20.00112 90.50153 37,000 126 454 0
2017-09-20 11:50:47 GMT 20.01811 90.47771 37,000 127 454 0
2017-09-20 11:50:35 GMT 20.03554 90.45348 37,000 127 453 0
2017-09-20 11:50:22 GMT 20.04935 90.43416 37,000 127 452 0
2017-09-20 11:50:12 GMT 20.06392 90.41375 37,000 127 452 0
2017-09-20 11:49:59 GMT 20.07719 90.39516 37,000 127 451 0
2017-09-20 11:49:53 GMT 20.08957 90.37783 37,000 127 451 0
2017-09-20 11:49:49 GMT 20.09209 90.37428 37,000 126 450 0
2017-09-20 11:49:39 GMT 20.10317 90.35875 37,000 127 449 0
2017-09-20 11:49:33 GMT 20.11858 90.33705 37,000 126 449 0
2017-09-20 11:49:25 GMT 20.12105 90.33356 37,000 127 448 0
2017-09-20 11:49:14 GMT 20.13606 90.31247 37,000 126 447 0
2017-09-20 11:49:02 GMT 20.15002 90.29285 37,000 126 445 0
2017-09-20 11:48:50 GMT 20.16568 90.27083 37,000 127 444 0
2017-09-20 11:48:38 GMT 20.18211 90.24788 37,000 127 443 0
2017-09-20 11:48:25 GMT 20.20688 90.21315 37,000 127 443 0
2017-09-20 11:48:15 GMT 20.20875 90.21054 37,000 127 443 0
2017-09-20 11:48:03 GMT 20.22383 90.18931 37,000 127 443 0
2017-09-20 11:47:57 GMT 20.23727 90.17039 37,000 126 442 0
2017-09-20 11:47:51 GMT 20.23952 90.16725 37,000 126 442 0
2017-09-20 11:47:48 GMT 20.24259 90.16290 37,000 126 442 0
2017-09-20 11:47:39 GMT 20.25334 90.14773 37,000 126 442 0
2017-09-20 11:47:36 GMT 20.25755 90.14184 37,000 126 442 0
2017-09-20 11:47:30 GMT 20.26547 90.13071 37,000 126 442 0
2017-09-20 11:47:24 GMT 20.27284 90.12021 37,000 126 442 0
2017-09-20 11:47:13 GMT 20.28520 90.10280 37,000 126 442 0
2017-09-20 11:47:11 GMT 20.28813 90.09863 37,000 126 442 0
2017-09-20 11:47:06 GMT 20.29640 90.08699 37,000 126 442 0
2017-09-20 11:47:00 GMT 20.30246 90.07842 37,000 126 442 0
2017-09-20 11:46:54 GMT 20.30983 90.06798 37,000 126 442 0
2017-09-20 11:46:52 GMT 20.31921 90.05473 37,000 126 442 0
2017-09-20 11:46:41 GMT 20.32475 90.04694 37,000 126 442 0
2017-09-20 11:46:29 GMT 20.34077 90.02427 37,000 126 442 0
2017-09-20 11:46:17 GMT 20.35408 90.00549 37,000 126 442 0
2017-09-20 11:46:15 GMT 20.36665 89.98771 37,000 126 442 0
2017-09-20 11:45:58 GMT 20.37722 89.97273 37,000 126 442 0
2017-09-20 11:45:54 GMT 20.38426 89.96282 37,000 126 442 0
2017-09-20 11:45:52 GMT 20.38770 89.95797 37,000 126 442 0
2017-09-20 11:45:42 GMT 20.39863 89.94247 37,000 126 442 0
2017-09-20 11:45:30 GMT 20.41269 89.92260 37,000 126 442 0
2017-09-20 11:45:27 GMT 20.41750 89.91584 37,000 126 442 0
2017-09-20 11:45:19 GMT 20.42587 89.90397 37,000 126 442 0
2017-09-20 11:45:17 GMT 20.42885 89.89980 37,000 126 442 0
2017-09-20 11:45:07 GMT 20.44020 89.88376 37,000 126 442 0
2017-09-20 11:45:04 GMT 20.44437 89.87783 37,000 126 442 0
2017-09-20 11:44:56 GMT 20.45398 89.86424 37,000 126 442 0
2017-09-20 11:44:46 GMT 20.46739 89.84524 37,000 126 441 0
2017-09-20 11:44:40 GMT 20.47339 89.83673 37,000 126 440 0
2017-09-20 11:44:34 GMT 20.48084 89.82612 37,000 126 440 0
2017-09-20 11:44:28 GMT 20.48745 89.81678 37,000 126 440 0
2017-09-20 11:44:23 GMT 20.49541 89.80548 37,000 126 440 0
2017-09-20 11:44:13 GMT 20.50752 89.78826 37,000 126 440 0
2017-09-20 11:44:10 GMT 20.51120 89.78307 37,000 126 440 0
2017-09-20 11:44:02 GMT 20.52306 89.76620 37,000 126 440 0
2017-09-20 11:43:54 GMT 20.53200 89.75351 36,975 126 440 0
2017-09-20 11:43:49 GMT 20.54073 89.74118 37,000 126 441 0
2017-09-20 11:43:44 GMT 20.54196 89.73942 37,000 126 441 0
2017-09-20 11:43:35 GMT 20.55418 89.72201 37,000 126 441 0
2017-09-20 11:43:30 GMT 20.56729 89.70332 36,975 126 443 0
2017-09-20 11:43:23 GMT 20.56850 89.70157 36,975 126 442 0
2017-09-20 11:43:12 GMT 20.58275 89.68130 36,975 126 443 0
2017-09-20 11:43:03 GMT 20.59308 89.66661 36,975 126 443 0
2017-09-20 11:42:59 GMT 20.59818 89.65947 37,000 126 443 0
2017-09-20 11:42:56 GMT 20.60863 89.64459 37,000 126 444 0
2017-09-20 11:42:48 GMT 20.61172 89.64020 37,000 126 444 0
2017-09-20 11:42:36 GMT 20.62599 89.62007 36,975 126 445 0
2017-09-20 11:42:25 GMT 20.64010 89.60010 37,000 126 445 0
2017-09-20 11:42:21 GMT 20.64619 89.59149 37,000 126 445 0
2017-09-20 11:42:19 GMT 20.65288 89.58198 36,975 126 446 0
2017-09-20 11:42:14 GMT 20.65476 89.57937 36,975 126 446 0
2017-09-20 11:42:02 GMT 20.66931 89.55878 37,000 126 446 0
2017-09-20 11:41:50 GMT 20.68334 89.53887 37,000 126 446 0
2017-09-20 11:41:46 GMT 20.69447 89.52299 37,000 126 447 0
2017-09-20 11:41:39 GMT 20.69811 89.51783 37,000 126 447 0
2017-09-20 11:41:36 GMT 20.70007 89.51503 37,000 126 448 0
2017-09-20 11:41:26 GMT 20.71220 89.49767 37,000 126 447 0
2017-09-20 11:41:14 GMT 20.72905 89.47359 37,000 126 448 0
2017-09-20 11:41:10 GMT 20.73837 89.46027 37,000 126 448 0
2017-09-20 11:41:03 GMT 20.74261 89.45428 37,000 126 448 0
2017-09-20 11:40:54 GMT 20.75313 89.43916 37,000 126 448 0
2017-09-20 11:40:51 GMT 20.75676 89.43405 37,000 126 448 0
2017-09-20 11:40:38 GMT 20.77887 89.40244 37,000 126 449 0
2017-09-20 11:40:26 GMT 20.78688 89.39106 37,000 126 450 0
2017-09-20 11:40:21 GMT 20.80019 89.37201 37,000 126 451 0
2017-09-20 11:40:16 GMT 20.80019 89.37201 37,000 126 451 0
2017-09-20 11:40:05 GMT 20.81342 89.35308 36,975 126 452 0
2017-09-20 11:39:53 GMT 20.83082 89.32819 36,975 126 453 0
2017-09-20 11:39:48 GMT 20.84074 89.31399 36,975 126 453 0
2017-09-20 11:39:31 GMT 20.86253 89.28289 37,000 126 454 0
2017-09-20 11:39:26 GMT 20.86732 89.27605 37,000 126 455 0
2017-09-20 11:39:14 GMT 20.87644 89.26312 37,000 126 455 0
2017-09-20 11:38:58 GMT 20.89800 89.23320 37,000 129 455 0
2017-09-20 11:38:55 GMT 20.90181 89.22841 37,000 132 455 0
2017-09-20 11:38:52 GMT 20.91531 89.21261 37,000 134 456 0
2017-09-20 11:38:44 GMT 20.91750 89.21018 37,000 134 456 0
2017-09-20 11:38:40 GMT 20.93114 89.19605 37,000 137 457 0
2017-09-20 11:38:33 GMT 20.93431 89.19300 37,000 138 457 0
2017-09-20 11:38:21 GMT 20.95363 89.17568 37,000 142 458 0
2017-09-20 11:38:19 GMT 20.95633 89.17347 37,000 142 458 0
2017-09-20 11:38:09 GMT 20.97501 89.15852 37,000 142 458 0
2017-09-20 11:38:07 GMT 20.99213 89.14471 37,000 142 457 0
2017-09-20 11:37:57 GMT 20.99687 89.14092 37,000 142 457 0
2017-09-20 11:37:48 GMT 21.01987 89.12239 37,000 142 457 0
2017-09-20 11:37:42 GMT 21.02412 89.11894 37,000 142 457 0
2017-09-20 11:37:41 GMT 21.02243 89.12031 37,000 142 457 0
2017-09-20 11:37:34 GMT 21.03360 89.11131 37,000 143 457 0
2017-09-20 11:37:30 GMT 21.04884 89.09912 37,000 143 457 0
2017-09-20 11:37:23 GMT 21.05530 89.09393 37,000 143 457 0
2017-09-20 11:37:20 GMT 21.05869 89.09123 37,000 143 457 0
2017-09-20 11:37:11 GMT 21.07778 89.07588 37,000 143 457 0
2017-09-20 11:36:55 GMT 21.10823 89.05141 37,000 142 455 448
2017-09-20 11:36:50 GMT 21.10823 89.05141 37,000 142 455 384
2017-09-20 11:36:41 GMT 21.12557 89.03745 36,925 142 454 448
2017-09-20 11:36:38 GMT 21.13686 89.02837 36,875 142 454 448
2017-09-20 11:36:29 GMT 21.14458 89.02211 36,850 142 454 576
2017-09-20 11:36:22 GMT 21.16457 89.00604 36,725 142 454 512
2017-09-20 11:36:17 GMT 21.16879 89.00263 36,700 142 454 512
2017-09-20 11:36:09 GMT 21.17619 88.99668 36,675 142 454 512
2017-09-20 11:36:02 GMT 21.18960 88.98590 36,600 142 454 512
2017-09-20 11:35:49 GMT 21.21561 88.96494 36,450 142 454 576
2017-09-20 11:35:38 GMT 21.22991 88.95340 36,375 142 453 640
2017-09-20 11:35:30 GMT 21.24300 88.94287 36,300 143 454 704
2017-09-20 11:35:27 GMT 21.25678 88.93178 36,200 142 454 768
2017-09-20 11:35:18 GMT 21.26623 88.92421 36,125 142 454 768
2017-09-20 11:35:16 GMT 21.26706 88.92354 36,125 142 454 768
2017-09-20 11:35:10 GMT 21.28491 88.90916 35,975 142 456 896
2017-09-20 11:35:05 GMT 21.28592 88.90836 35,975 142 456 832
2017-09-20 11:35:00 GMT 21.29402 88.90182 35,900 142 456 704
2017-09-20 11:34:53 GMT 21.30873 88.88997 35,800 143 457 640
2017-09-20 11:34:45 GMT 21.31953 88.88128 35,750 143 457 704
2017-09-20 11:34:36 GMT 21.34392 88.86164 35,575 142 457 704
2017-09-20 11:34:22 GMT 21.36507 88.84454 35,450 142 457 704
2017-09-20 11:34:19 GMT 21.37523 88.83635 35,375 142 458 768
2017-09-20 11:34:08 GMT 21.38181 88.83097 35,325 142 456 640
2017-09-20 11:34:06 GMT 21.38438 88.82896 35,300 142 458 576
2017-09-20 11:33:55 GMT 21.40281 88.81404 35,225 142 456 640
2017-09-20 11:33:52 GMT 21.40837 88.80953 35,175 142 456 896
2017-09-20 11:33:49 GMT 21.41971 88.80035 35,075 142 458 832
2017-09-20 11:33:45 GMT 21.42055 88.79964 35,075 142 458 832
2017-09-20 11:33:41 GMT 21.43796 88.78555 34,975 142 456 -64
2017-09-20 11:33:34 GMT 21.44136 88.78281 34,975 142 456 -128
2017-09-20 11:33:24 GMT 21.45821 88.76918 34,975 142 456 0
2017-09-20 11:33:20 GMT 21.46193 88.76617 35,000 142 456 0
2017-09-20 11:33:18 GMT 21.47630 88.75455 35,000 142 456 0
2017-09-20 11:33:11 GMT 21.47781 88.75336 35,000 142 456 0
2017-09-20 11:33:09 GMT 21.48353 88.74873 35,000 142 456 0
2017-09-20 11:33:01 GMT 21.49573 88.73891 35,000 143 456 0
2017-09-20 11:32:58 GMT 21.49997 88.73552 35,000 143 456 0
2017-09-20 11:32:49 GMT 21.51659 88.72219 35,000 143 456 0
2017-09-20 11:32:47 GMT 21.51997 88.71949 35,000 143 456 0
2017-09-20 11:32:43 GMT 21.53316 88.70891 35,000 143 456 0
2017-09-20 11:32:35 GMT 21.53861 88.70456 35,000 143 456 0
2017-09-20 11:32:23 GMT 21.56146 88.68622 35,000 143 456 0
2017-09-20 11:32:18 GMT 21.56858 88.68052 35,000 143 456 0
2017-09-20 11:32:10 GMT 21.58073 88.67070 35,000 143 457 0
2017-09-20 11:32:06 GMT 21.58905 88.66406 35,000 143 457 0
2017-09-20 11:32:04 GMT 21.59088 88.66257 35,000 143 457 0
2017-09-20 11:31:58 GMT 21.60091 88.65452 34,975 142 456 -64
2017-09-20 11:31:52 GMT 21.61606 88.64219 35,000 142 456 0
2017-09-20 11:31:47 GMT 21.62077 88.63835 35,000 142 456 0
2017-09-20 11:31:35 GMT 21.63927 88.62326 35,000 142 456 0
2017-09-20 11:31:29 GMT 21.65035 88.61413 35,000 142 456 0
2017-09-20 11:31:23 GMT 21.65792 88.60794 35,000 142 456 0
2017-09-20 11:31:18 GMT 21.66884 88.59899 35,000 142 456 0
2017-09-20 11:31:16 GMT 21.68315 88.58729 35,000 142 456 0
2017-09-20 11:31:07 GMT 21.68802 88.58331 35,000 142 456 0
2017-09-20 11:30:56 GMT 21.70843 88.56674 35,000 142 456 0
2017-09-20 11:30:53 GMT 21.71010 88.56537 35,000 142 456 0
2017-09-20 11:30:46 GMT 21.72340 88.55455 35,000 142 456 0
2017-09-20 11:30:43 GMT 21.72945 88.54966 35,000 142 456 0
2017-09-20 11:30:35 GMT 21.74222 88.53922 35,000 142 456 0
2017-09-20 11:30:33 GMT 21.74222 88.53922 35,000 142 455 0
2017-09-20 11:30:31 GMT 21.74794 88.53457 35,000 142 455 0
2017-09-20 11:30:29 GMT 21.75214 88.53114 35,000 142 455 0
2017-09-20 11:30:21 GMT 21.76405 88.52144 35,000 142 455 0
2017-09-20 11:30:17 GMT 21.77078 88.51595 35,000 142 455 0
2017-09-20 11:30:15 GMT 21.77970 88.50866 35,000 142 455 0
2017-09-20 11:30:08 GMT 21.78960 88.50057 35,000 142 455 0
2017-09-20 11:30:04 GMT 21.79431 88.49672 35,000 142 455 0
2017-09-20 11:29:58 GMT 21.80337 88.48938 35,000 142 455 0
2017-09-20 11:29:55 GMT 21.80809 88.48553 35,000 142 455 0
2017-09-20 11:29:52 GMT 21.81784 88.47759 35,000 142 455 0
2017-09-20 11:29:49 GMT 21.81784 88.47759 35,000 142 455 0
2017-09-20 11:29:46 GMT 21.82288 88.47350 35,000 142 455 0
2017-09-20 11:29:44 GMT 21.83011 88.46761 35,000 142 455 0
2017-09-20 11:29:38 GMT 21.83771 88.46147 35,000 142 455 0
2017-09-20 11:29:31 GMT 21.84864 88.45261 35,000 142 454 0
2017-09-20 11:29:29 GMT 21.85269 88.44935 35,000 142 454 0
2017-09-20 11:29:26 GMT 21.85809 88.44498 35,000 142 454 0
2017-09-20 11:29:19 GMT 21.86902 88.43615 35,000 142 454 0
2017-09-20 11:29:14 GMT 21.87862 88.42840 35,000 142 455 0
2017-09-20 11:29:08 GMT 21.88650 88.42196 34,975 142 454 0
2017-09-20 11:29:04 GMT 21.89510 88.41502 35,000 142 454 0
2017-09-20 11:29:01 GMT 21.89845 88.41227 35,000 142 454 0
2017-09-20 11:28:56 GMT 21.90500 88.40693 35,000 142 454 0
2017-09-20 11:28:54 GMT 21.91168 88.40149 35,000 142 454 0
2017-09-20 11:28:49 GMT 21.91708 88.39714 35,000 142 454 0
2017-09-20 11:28:46 GMT 21.92413 88.39140 35,000 142 454 0
2017-09-20 11:28:39 GMT 21.93622 88.38161 35,000 142 454 0
2017-09-20 11:28:34 GMT 21.94459 88.37477 35,000 142 454 0
2017-09-20 11:28:28 GMT 21.95483 88.36650 35,000 142 454 0
2017-09-20 11:28:23 GMT 21.96358 88.35943 35,000 142 454 0
2017-09-20 11:28:15 GMT 21.98499 88.34198 35,000 142 453 0
2017-09-20 11:28:12 GMT 21.98653 88.34077 35,000 142 453 0
2017-09-20 11:28:03 GMT 21.99742 88.33186 35,000 142 453 0
2017-09-20 11:27:57 GMT 22.00776 88.32341 35,000 142 453 0
2017-09-20 11:27:53 GMT 22.01511 88.31741 35,000 142 453 0
2017-09-20 11:27:50 GMT 22.01930 88.31400 34,975 142 453 0
2017-09-20 11:27:45 GMT 22.02599 88.30850 34,975 142 453 0
2017-09-20 11:27:40 GMT 22.03606 88.30031 35,000 142 453 0
2017-09-20 11:27:34 GMT 22.04439 88.29342 35,000 142 453 0
2017-09-20 11:27:31 GMT 22.05059 88.28837 35,000 142 453 0
2017-09-20 11:27:28 GMT 22.05924 88.28125 35,000 142 453 0
2017-09-20 11:27:23 GMT 22.06476 88.27670 35,000 142 453 0
2017-09-20 11:27:20 GMT 22.06897 88.27326 35,000 142 453 0
2017-09-20 11:27:08 GMT 22.08847 88.25722 35,000 142 453 0
2017-09-20 11:27:06 GMT 22.10170 88.24641 35,000 142 453 0
2017-09-20 11:26:58 GMT 22.10603 88.24285 35,000 142 453 0
2017-09-20 11:26:55 GMT 22.11621 88.23455 35,000 142 453 0
2017-09-20 11:26:48 GMT 22.12740 88.22535 35,000 142 453 0
2017-09-20 11:26:44 GMT 22.12740 88.22535 35,000 142 453 0
2017-09-20 11:26:40 GMT 22.13545 88.21879 35,000 142 453 0
2017-09-20 11:26:35 GMT 22.14194 88.21347 35,000 142 453 0
2017-09-20 11:26:24 GMT 22.15938 88.19924 35,000 142 453 0
2017-09-20 11:26:15 GMT 22.17730 88.18456 35,000 142 455 0
2017-09-20 11:26:08 GMT 22.20030 88.16573 35,000 142 455 0
2017-09-20 11:26:00 GMT 22.20179 88.16447 35,000 142 455 0
2017-09-20 11:25:53 GMT 22.21403 88.15440 35,000 142 455 0
2017-09-20 11:25:51 GMT 22.22865 88.14245 35,000 142 455 0
2017-09-20 11:25:42 GMT 22.23200 88.13970 35,000 142 455 0
2017-09-20 11:25:34 GMT 22.25751 88.11874 35,000 142 455 0
2017-09-20 11:25:22 GMT 22.26407 88.11340 35,000 142 455 0
2017-09-20 11:25:12 GMT 22.28139 88.09921 35,000 142 455 0
2017-09-20 11:25:07 GMT 22.29145 88.09097 35,000 142 455 0
2017-09-20 11:24:57 GMT 22.30890 88.07673 35,000 142 453 0
2017-09-20 11:24:54 GMT 22.32381 88.06451 35,000 142 453 0
2017-09-20 11:24:46 GMT 22.32697 88.06188 35,000 142 453 0
2017-09-20 11:24:42 GMT 22.33516 88.05517 35,000 142 454 0
2017-09-20 11:24:36 GMT 22.34285 88.04883 35,000 142 454 0
2017-09-20 11:24:31 GMT 22.35255 88.04089 35,000 142 453 0
2017-09-20 11:24:25 GMT 22.36359 88.03180 35,000 142 453 0
2017-09-20 11:24:22 GMT 22.36607 88.02973 35,000 142 453 0
2017-09-20 11:24:12 GMT 22.38143 88.01707 34,975 142 453 0
2017-09-20 11:24:10 GMT 22.39362 88.00698 35,000 142 454 0
2017-09-20 11:24:02 GMT 22.39860 88.00289 35,000 142 453 0
2017-09-20 11:23:59 GMT 22.40662 87.99624 35,000 142 453 0
2017-09-20 11:23:53 GMT 22.41298 87.99105 35,000 142 453 0
2017-09-20 11:23:51 GMT 22.41751 87.98731 35,000 142 453 0
2017-09-20 11:23:46 GMT 22.42767 87.97897 35,000 142 453 0
2017-09-20 11:23:42 GMT 22.43271 87.97482 35,000 142 453 0
2017-09-20 11:23:39 GMT 22.43870 87.96993 35,000 142 453 0
2017-09-20 11:23:35 GMT 22.44893 87.96153 35,000 142 453 0
2017-09-20 11:23:30 GMT 22.45359 87.95771 35,000 142 453 0
2017-09-20 11:23:22 GMT 22.47025 87.94393 35,000 142 453 0
2017-09-20 11:23:17 GMT 22.47496 87.94011 35,000 142 453 0
2017-09-20 11:23:09 GMT 22.48878 87.92868 35,000 142 453 0
2017-09-20 11:23:06 GMT 22.49414 87.92428 35,000 142 453 0
2017-09-20 11:22:58 GMT 22.50751 87.91335 35,000 142 452 0
2017-09-20 11:22:55 GMT 22.51218 87.90950 35,000 142 453 0
2017-09-20 11:22:47 GMT 22.52815 87.89632 34,975 142 453 0
2017-09-20 11:22:39 GMT 22.53918 87.88728 35,000 142 453 0
2017-09-20 11:22:36 GMT 22.54399 87.88330 35,000 142 452 0
2017-09-20 11:22:33 GMT 22.54837 87.87974 35,000 142 452 0
2017-09-20 11:22:26 GMT 22.56084 87.86945 35,000 142 452 0
2017-09-20 11:22:22 GMT 22.56651 87.86476 35,000 142 452 0
2017-09-20 11:22:14 GMT 22.57998 87.85365 35,000 142 452 0
2017-09-20 11:22:11 GMT 22.58482 87.84968 34,975 142 452 0
2017-09-20 11:22:02 GMT 22.59814 87.83864 35,000 142 452 0
2017-09-20 11:22:00 GMT 22.60382 87.83400 35,000 142 452 0
2017-09-20 11:21:56 GMT 22.61461 87.82506 35,000 142 452 0
2017-09-20 11:21:51 GMT 22.61645 87.82356 35,000 142 452 0
2017-09-20 11:21:49 GMT 22.62327 87.81789 35,000 142 452 0
2017-09-20 11:21:45 GMT 22.62946 87.81282 35,000 142 452 0
2017-09-20 11:21:43 GMT 22.63263 87.81021 35,000 142 452 0
2017-09-20 11:21:39 GMT 22.63779 87.80598 35,000 142 452 0
2017-09-20 11:21:37 GMT 22.64177 87.80263 35,000 142 452 0
2017-09-20 11:21:32 GMT 22.65060 87.79536 35,000 142 453 0
2017-09-20 11:21:29 GMT 22.65558 87.79124 35,000 142 452 0
2017-09-20 11:21:26 GMT 22.66209 87.78585 35,000 142 452 0
2017-09-20 11:21:19 GMT 22.67207 87.77762 35,000 142 452 0
2017-09-20 11:21:17 GMT 22.67555 87.77471 35,000 142 452 0
2017-09-20 11:21:14 GMT 22.68086 87.77034 35,000 142 452 0
2017-09-20 11:21:02 GMT 22.69968 87.75474 35,000 142 452 0
2017-09-20 11:20:51 GMT 22.71819 87.73951 35,000 142 453 0
2017-09-20 11:20:43 GMT 22.73135 87.72863 35,000 142 452 0
2017-09-20 11:20:38 GMT 22.74021 87.72130 35,000 142 452 0
2017-09-20 11:20:36 GMT 22.74351 87.71856 35,000 142 452 0
2017-09-20 11:20:28 GMT 22.75603 87.70820 35,000 142 452 0
2017-09-20 11:20:25 GMT 22.76153 87.70365 35,000 142 453 0
2017-09-20 11:20:18 GMT 22.77402 87.69332 35,000 142 453 0
2017-09-20 11:20:14 GMT 22.78070 87.68778 35,000 142 453 0
2017-09-20 11:20:05 GMT 22.79286 87.67771 35,000 142 454 0
2017-09-20 11:20:02 GMT 22.79789 87.67354 35,000 142 453 0
2017-09-20 11:19:55 GMT 22.81125 87.66251 35,000 142 454 0
2017-09-20 11:19:52 GMT 22.81641 87.65821 35,000 142 454 0
2017-09-20 11:19:44 GMT 22.83159 87.64562 35,000 142 454 0
2017-09-20 11:19:41 GMT 22.83560 87.64226 35,000 142 454 0
2017-09-20 11:19:32 GMT 22.85031 87.63006 35,000 142 455 0
2017-09-20 11:19:29 GMT 22.86319 87.61936 35,000 142 455 0
2017-09-20 11:19:21 GMT 22.86972 87.61398 35,000 142 455 0
2017-09-20 11:19:09 GMT 22.88880 87.59811 35,000 142 455 0
2017-09-20 11:18:57 GMT 22.90805 87.58211 35,000 142 455 0
2017-09-20 11:18:44 GMT 22.93112 87.56293 35,000 142 455 0
2017-09-20 11:18:34 GMT 22.94672 87.55000 35,000 142 455 0
2017-09-20 11:18:32 GMT 22.95456 87.54346 35,000 142 455 0
2017-09-20 11:18:23 GMT 22.96761 87.53267 35,000 142 455 0
2017-09-20 11:18:19 GMT 22.97278 87.52833 35,000 142 454 0
2017-09-20 11:18:11 GMT 22.98802 87.51574 35,000 142 454 0
2017-09-20 11:18:06 GMT 22.99136 87.51295 35,000 142 454 0
2017-09-20 11:18:01 GMT 23.00053 87.50534 35,000 142 453 0
2017-09-20 11:17:58 GMT 23.00886 87.49842 35,000 142 453 0
2017-09-20 11:17:56 GMT 23.01572 87.49277 35,000 142 453 0
2017-09-20 11:17:50 GMT 23.02055 87.48876 35,000 142 452 0
2017-09-20 11:17:46 GMT 23.02753 87.48291 35,000 142 452 0
2017-09-20 11:17:41 GMT 23.03554 87.47630 35,000 142 452 0
2017-09-20 11:17:34 GMT 23.04968 87.46451 35,000 142 452 0
2017-09-20 11:17:29 GMT 23.05499 87.46011 35,000 142 452 0
2017-09-20 11:17:26 GMT 23.05998 87.45592 34,975 142 452 0
2017-09-20 11:17:22 GMT 23.06763 87.44957 35,000 142 452 0
2017-09-20 11:17:19 GMT 23.07193 87.44598 35,000 142 452 0
2017-09-20 11:17:08 GMT 23.09619 87.42575 35,000 142 452 0
2017-09-20 11:16:59 GMT 23.10532 87.41816 35,000 142 452 0
2017-09-20 11:16:56 GMT 23.11095 87.41343 35,000 142 452 0
2017-09-20 11:16:53 GMT 23.11994 87.40596 35,000 142 452 0
2017-09-20 11:16:48 GMT 23.12492 87.40184 35,000 142 452 0
2017-09-20 11:16:46 GMT 23.12672 87.40028 35,000 142 452 0
2017-09-20 11:16:39 GMT 23.14084 87.38856 35,000 142 451 0
2017-09-20 11:16:35 GMT 23.14462 87.38535 35,000 142 451 0
2017-09-20 11:16:27 GMT 23.15871 87.37361 35,000 142 451 0
2017-09-20 11:16:24 GMT 23.16321 87.36987 35,000 142 450 0
2017-09-20 11:16:20 GMT 23.17063 87.36369 35,000 142 450 0
2017-09-20 11:16:16 GMT 23.17676 87.35859 35,000 142 450 0
2017-09-20 11:16:13 GMT 23.18255 87.35372 35,000 142 450 0
2017-09-20 11:16:05 GMT 23.19562 87.34286 35,000 142 450 0
2017-09-20 11:16:01 GMT 23.20243 87.33719 34,975 142 449 0
2017-09-20 11:15:54 GMT 23.21365 87.32783 34,975 142 449 0
2017-09-20 11:15:50 GMT 23.22107 87.32158 35,000 142 450 0
2017-09-20 11:15:46 GMT 23.22734 87.31634 35,000 142 449 0
2017-09-20 11:15:42 GMT 23.23164 87.31279 35,000 142 449 0
2017-09-20 11:15:38 GMT 23.24158 87.30450 35,000 142 450 0
2017-09-20 11:15:35 GMT 23.24487 87.30176 35,000 142 450 0
2017-09-20 11:15:31 GMT 23.25992 87.28923 35,000 142 449 0
2017-09-20 11:15:24 GMT 23.26337 87.28633 35,000 142 449 0
2017-09-20 11:15:19 GMT 23.27114 87.27987 35,000 142 450 0
2017-09-20 11:15:12 GMT 23.28073 87.27188 35,000 142 450 0
2017-09-20 11:15:10 GMT 23.28621 87.26735 35,000 142 449 0
2017-09-20 11:15:08 GMT 23.28901 87.26502 35,000 142 449 0
2017-09-20 11:15:02 GMT 23.29893 87.25672 35,000 142 449 0
2017-09-20 11:14:59 GMT 23.30470 87.25192 35,000 142 449 0
2017-09-20 11:14:50 GMT 23.31628 87.24223 34,975 142 449 0
2017-09-20 11:14:47 GMT 23.32467 87.23521 34,975 142 449 0
2017-09-20 11:14:40 GMT 23.34087 87.22168 34,975 142 449 0
2017-09-20 11:14:35 GMT 23.34270 87.22016 34,975 142 449 0
2017-09-20 11:14:24 GMT 23.36284 87.20328 34,975 142 451 0
2017-09-20 11:14:17 GMT 23.37277 87.19499 34,975 142 450 0
2017-09-20 11:14:11 GMT 23.39626 87.17531 35,000 142 451 0
2017-09-20 11:13:59 GMT 23.40437 87.16848 35,000 142 451 0
2017-09-20 11:13:52 GMT 23.41512 87.15949 35,000 142 451 0
2017-09-20 11:13:47 GMT 23.42257 87.15322 35,000 142 452 0
2017-09-20 11:13:41 GMT 23.43286 87.14457 35,000 142 453 0
2017-09-20 11:13:36 GMT 23.44147 87.13730 35,000 142 453 0
2017-09-20 11:13:30 GMT 23.45860 87.12288 35,000 142 454 0
2017-09-20 11:13:25 GMT 23.45944 87.12219 35,000 142 454 0
2017-09-20 11:13:14 GMT 23.48076 87.10429 35,000 142 454 0
2017-09-20 11:13:04 GMT 23.49510 87.09229 35,000 142 454 0
2017-09-20 11:13:01 GMT 23.49943 87.08862 35,000 142 454 0
2017-09-20 11:12:59 GMT 23.50392 87.08488 35,000 142 454 0
2017-09-20 11:12:50 GMT 23.51926 87.07199 35,000 142 454 0
2017-09-20 11:12:48 GMT 23.52090 87.07059 35,000 142 454 0
2017-09-20 11:12:38 GMT 23.53839 87.05592 35,000 142 454 0
2017-09-20 11:12:33 GMT 23.54407 87.05114 35,000 142 454 0
2017-09-20 11:12:27 GMT 23.55836 87.03908 35,000 142 454 0
2017-09-20 11:12:23 GMT 23.56269 87.03545 35,000 142 454 0
2017-09-20 11:12:15 GMT 23.57666 87.02369 35,000 142 454 0
2017-09-20 11:12:12 GMT 23.58136 87.01975 35,000 142 454 0
2017-09-20 11:12:02 GMT 23.59533 87.00804 35,000 142 454 0
2017-09-20 11:11:52 GMT 23.61432 86.99208 34,975 142 454 0
2017-09-20 11:11:40 GMT 23.63580 86.97398 35,000 142 454 0
2017-09-20 11:11:31 GMT 23.64928 86.96259 35,000 142 453 0
2017-09-20 11:11:28 GMT 23.66208 86.95180 35,000 142 454 0
2017-09-20 11:11:20 GMT 23.66808 86.94672 35,000 142 454 0
2017-09-20 11:11:11 GMT 23.68252 86.93456 35,000 142 454 0
2017-09-20 11:11:09 GMT 23.68671 86.93105 35,000 142 454 0
2017-09-20 11:11:00 GMT 23.70319 86.91720 35,000 142 453 0
2017-09-20 11:10:57 GMT 23.70584 86.91497 35,000 142 453 0
2017-09-20 11:10:49 GMT 23.71911 86.90377 35,000 142 453 64
2017-09-20 11:10:46 GMT 23.72392 86.89972 35,000 142 452 64
2017-09-20 11:10:37 GMT 23.73866 86.88729 34,975 142 452 0
2017-09-20 11:10:32 GMT 23.74580 86.88126 35,000 142 452 0
2017-09-20 11:10:26 GMT 23.75686 86.87185 35,000 142 452 0
2017-09-20 11:10:23 GMT 23.76100 86.86834 35,000 142 452 0
2017-09-20 11:10:16 GMT 23.77376 86.85760 35,000 142 451 0
2017-09-20 11:10:13 GMT 23.77837 86.85371 35,000 142 451 0
2017-09-20 11:10:05 GMT 23.79397 86.84060 35,000 142 451 0
2017-09-20 11:10:02 GMT 23.79727 86.83780 35,000 142 451 0
2017-09-20 11:09:53 GMT 23.81249 86.82495 35,000 142 451 0
2017-09-20 11:09:51 GMT 23.81645 86.82164 35,000 142 451 0
2017-09-20 11:09:41 GMT 23.83383 86.80700 35,000 142 451 0
2017-09-20 11:09:39 GMT 23.83548 86.80557 35,000 142 451 0
2017-09-20 11:09:29 GMT 23.85663 86.78772 35,000 142 451 0
2017-09-20 11:09:27 GMT 23.85663 86.78772 35,000 142 451 0
2017-09-20 11:09:16 GMT 23.87362 86.77339 35,000 142 451 0
2017-09-20 11:09:13 GMT 23.87778 86.76987 35,000 142 451 0
2017-09-20 11:09:04 GMT 23.89345 86.75660 35,000 142 451 0
2017-09-20 11:08:58 GMT 23.90584 86.74617 35,000 142 451 0
2017-09-20 11:08:52 GMT 23.91243 86.74057 35,000 142 450 0
2017-09-20 11:08:45 GMT 23.92413 86.73069 35,000 141 449 0
2017-09-20 11:08:43 GMT 23.92771 86.72758 35,000 141 449 0
2017-09-20 11:08:34 GMT 23.94219 86.71529 35,000 142 448 0
2017-09-20 11:08:32 GMT 23.94562 86.71239 35,000 142 448 0
2017-09-20 11:08:27 GMT 23.95386 86.70542 35,000 142 448 0
2017-09-20 11:08:23 GMT 23.96173 86.69871 35,000 141 448 0
2017-09-20 11:08:11 GMT 23.98772 86.67664 35,000 142 446 0
2017-09-20 11:07:57 GMT 24.00421 86.66260 35,000 142 446 0
2017-09-20 11:07:45 GMT 24.02248 86.64709 35,000 142 446 0
2017-09-20 11:07:35 GMT 24.04038 86.63188 35,000 142 445 0
2017-09-20 11:07:32 GMT 24.04381 86.62901 35,000 141 444 0
2017-09-20 11:07:17 GMT 24.06779 86.60854 35,000 142 443 0
2017-09-20 11:07:14 GMT 24.07430 86.60305 35,000 141 443 0
2017-09-20 11:07:09 GMT 24.08029 86.59795 35,000 141 443 0
2017-09-20 11:06:58 GMT 24.09693 86.58377 35,000 141 442 0
2017-09-20 11:06:48 GMT 24.11494 86.56838 35,000 142 440 0
2017-09-20 11:06:39 GMT 24.12882 86.55656 35,000 142 440 0
2017-09-20 11:06:35 GMT 24.13637 86.55014 35,000 141 439 0
2017-09-20 11:06:24 GMT 24.15559 86.53371 35,000 141 438 0
2017-09-20 11:06:14 GMT 24.17113 86.52044 35,000 141 438 0
2017-09-20 11:06:12 GMT 24.17304 86.51878 35,000 141 438 0
2017-09-20 11:05:58 GMT 24.19483 86.50023 35,000 141 438 64
2017-09-20 11:05:48 GMT 24.20889 86.48826 34,975 141 438 0
2017-09-20 11:05:38 GMT 24.22714 86.47266 34,975 142 438 0
2017-09-20 11:05:23 GMT 24.25120 86.45214 35,000 141 439 0
2017-09-20 11:04:59 GMT 24.29012 86.41903 35,000 141 440 0
2017-09-20 11:04:48 GMT 24.30762 86.40401 35,000 141 440 0
2017-09-20 11:04:37 GMT 24.32671 86.38768 35,000 141 440 0
2017-09-20 11:04:25 GMT 24.34701 86.37031 35,000 141 440 0
2017-09-20 11:04:11 GMT 24.36649 86.35366 35,000 141 441 0
2017-09-20 11:04:00 GMT 24.38565 86.33725 35,000 141 441 64
2017-09-20 11:03:39 GMT 24.41725 86.31002 35,000 141 440 0
2017-09-20 11:03:36 GMT 24.42755 86.30122 35,000 141 440 0
2017-09-20 11:03:21 GMT 24.44618 86.28525 35,000 141 440 0
2017-09-20 11:03:10 GMT 24.46683 86.26745 35,000 141 439 0
2017-09-20 11:02:58 GMT 24.48367 86.25300 35,000 141 439 0
2017-09-20 11:02:46 GMT 24.50285 86.23652 35,000 141 438 0
2017-09-20 11:02:35 GMT 24.52263 86.21948 35,000 141 437 0
2017-09-20 11:00:58 GMT 24.67722 86.08653 35,000 141 440 0
2017-09-20 11:00:21 GMT 24.73627 86.03577 35,000 141 444 0
2017-09-20 11:00:13 GMT 24.74740 86.02616 35,000 141 445 0
We lost coverage of the aircraft here for a total of 49 minutes
2017-09-20 10:11:31 GMT 27.35461 79.96885 33,000 80 455 192
We lost coverage of the aircraft here for a total of 10 minutes
2017-09-20 10:01:28 GMT 27.64142 78.67771 24,975 112 458 1024
2017-09-20 10:01:22 GMT 27.64641 78.66455 24,875 112 457 832
2017-09-20 10:01:11 GMT 27.65565 78.63998 24,700 112 457 1024
2017-09-20 10:00:56 GMT 27.66838 78.60625 24,475 112 456 1088
2017-09-20 10:00:13 GMT 27.70372 78.51255 23,725 112 453 1216
2017-09-20 10:00:06 GMT 27.70924 78.49795 23,575 112 453 1344
2017-09-20 09:59:53 GMT 27.71997 78.46949 23,325 112 453 1280
2017-09-20 09:59:44 GMT 27.72716 78.45036 23,175 112 451 960
2017-09-20 09:59:33 GMT 27.73613 78.42658 23,000 112 450 1152
2017-09-20 09:59:21 GMT 27.74506 78.40279 22,825 112 449 768
2017-09-20 09:59:10 GMT 27.75375 78.37979 22,675 113 446 1152
2017-09-20 09:58:59 GMT 27.76282 78.35581 22,500 112 445 768
2017-09-20 09:58:49 GMT 27.77138 78.33299 22,350 112 442 1088
2017-09-20 09:58:39 GMT 27.77980 78.31050 22,150 112 441 1344
2017-09-20 09:58:28 GMT 27.78875 78.28657 21,950 112 439 1152
2017-09-20 09:58:17 GMT 27.79719 78.26401 21,725 112 438 1152
2017-09-20 09:58:06 GMT 27.80553 78.24168 21,550 112 436 1152
2017-09-20 09:57:54 GMT 27.81408 78.21885 21,325 112 435 1472
2017-09-20 09:57:43 GMT 27.82265 78.19612 21,100 113 434 1152
2017-09-20 09:57:23 GMT 27.84229 78.15218 20,625 119 432 1600
2017-09-20 09:57:12 GMT 27.85318 78.13038 20,350 119 430 1472
2017-09-20 09:56:54 GMT 27.87073 78.09505 19,925 119 430 1408
2017-09-20 09:56:48 GMT 27.87595 78.08448 19,825 119 428 1408
2017-09-20 09:56:39 GMT 27.88518 78.06595 19,625 119 427 1216
2017-09-20 09:56:28 GMT 27.89550 78.04513 19,400 119 425 1408
2017-09-20 09:56:17 GMT 27.90601 78.02407 19,175 119 423 1408
2017-09-20 09:56:05 GMT 27.91708 78.00174 18,925 119 420 1408
2017-09-20 09:55:54 GMT 27.92729 77.98127 18,675 119 419 1472
2017-09-20 09:55:43 GMT 27.93730 77.96104 18,400 119 418 1792
2017-09-20 09:55:32 GMT 27.94743 77.94066 18,125 119 416 1728
2017-09-20 09:55:23 GMT 27.95769 77.91994 17,800 119 416 1920
2017-09-20 09:55:12 GMT 27.96794 77.89925 17,500 119 415 1536
2017-09-20 09:55:01 GMT 27.97817 77.87858 17,200 119 414 2240
2017-09-20 09:54:50 GMT 27.98832 77.85811 16,825 119 415 2112
2017-09-20 09:54:39 GMT 27.99884 77.83684 16,450 119 415 1984
2017-09-20 09:54:28 GMT 28.00909 77.81616 16,175 119 414 1792
2017-09-20 09:54:14 GMT 28.02226 77.78956 15,800 119 413 1600
2017-09-20 09:54:03 GMT 28.03088 77.77206 15,550 119 409 1664
2017-09-20 09:53:53 GMT 28.04027 77.75304 15,250 119 407 1728
2017-09-20 09:53:43 GMT 28.05084 77.73166 14,975 119 405 1472
2017-09-20 09:53:33 GMT 28.06011 77.71287 14,725 119 401 1536
2017-09-20 09:53:22 GMT 28.06984 77.69310 14,450 118 398 1792
2017-09-20 09:53:11 GMT 28.07941 77.67366 14,175 119 395 1536
2017-09-20 09:53:00 GMT 28.08934 77.65348 13,875 119 391 2048
2017-09-20 09:52:49 GMT 28.09898 77.63397 13,500 119 390 2240
2017-09-20 09:52:37 GMT 28.10893 77.61381 13,100 119 391 2176
2017-09-20 09:52:26 GMT 28.11841 77.59453 12,725 119 390 2240
2017-09-20 09:52:16 GMT 28.12770 77.57563 12,375 118 389 1984
2017-09-20 09:52:06 GMT 28.13673 77.55728 12,050 119 387 1984
2017-09-20 09:51:55 GMT 28.14609 77.53817 11,700 119 385 1920
2017-09-20 09:51:44 GMT 28.15545 77.51915 11,400 119 383 1664
2017-09-20 09:51:31 GMT 28.16579 77.49803 11,075 118 378 1728
2017-09-20 09:51:22 GMT 28.17397 77.48130 10,850 118 373 1664
2017-09-20 09:51:11 GMT 28.18300 77.46288 10,500 118 371 2304
2017-09-20 09:51:01 GMT 28.19220 77.44400 10,150 118 368 2176
2017-09-20 09:50:50 GMT 28.20090 77.42615 9,725 118 367 2624
2017-09-20 09:50:39 GMT 28.20977 77.40773 9,325 118 366 1664
2017-09-20 09:50:28 GMT 28.21894 77.38893 9,100 118 364 704
2017-09-20 09:50:16 GMT 28.22781 77.37074 9,000 118 364 0
2017-09-20 09:50:05 GMT 28.23646 77.35305 8,975 118 364 0
2017-09-20 09:49:55 GMT 28.24535 77.33498 9,000 119 365 0
2017-09-20 09:49:45 GMT 28.25446 77.31650 9,000 119 363 0
2017-09-20 09:49:34 GMT 28.26338 77.29843 9,000 119 359 0
2017-09-20 09:49:23 GMT 28.27210 77.28090 8,950 119 356 960
2017-09-20 09:49:12 GMT 28.28068 77.26357 8,775 119 351 1216
2017-09-20 09:49:01 GMT 28.28933 77.24617 8,550 119 345 1152
2017-09-20 09:48:50 GMT 28.29790 77.22893 8,325 119 338 2304
2017-09-20 09:48:39 GMT 28.30655 77.21144 7,925 119 335 1472
2017-09-20 09:48:28 GMT 28.31447 77.19528 7,675 118 328 1536
2017-09-20 09:48:16 GMT 28.32243 77.17863 7,425 118 319 1280
2017-09-20 09:48:07 GMT 28.32964 77.16312 7,225 117 309 1024
2017-09-20 09:47:56 GMT 28.33658 77.14713 7,075 115 294 768
2017-09-20 09:47:45 GMT 28.34370 77.13275 6,900 128 291 704
2017-09-20 09:47:33 GMT 28.35452 77.12070 6,700 146 291 1664
2017-09-20 09:47:23 GMT 28.36702 77.11383 6,375 166 288 2432
2017-09-20 09:47:12 GMT 28.38098 77.11235 5,950 189 287 2176
2017-09-20 09:47:00 GMT 28.39549 77.11573 5,500 195 284 2880
2017-09-20 09:46:49 GMT 28.40959 77.11990 4,975 195 286 2304
2017-09-20 09:46:39 GMT 28.42331 77.12381 4,600 195 281 2496
2017-09-20 09:46:29 GMT 28.43710 77.12772 4,175 195 280 2240
2017-09-20 09:46:18 GMT 28.45096 77.13194 3,800 197 275 2624
2017-09-20 09:46:07 GMT 28.46437 77.13657 3,375 199 272 1856
2017-09-20 09:45:56 GMT 28.47725 77.14172 3,125 201 263 832
2017-09-20 09:45:45 GMT 28.48946 77.14702 3,025 202 247 384
2017-09-20 09:45:34 GMT 28.50078 77.15144 2,900 195 233 1472
2017-09-20 09:45:23 GMT 28.51232 77.15294 2,700 172 223 1472

Making use of Plane Finder data

You are free to use the raw flight data, aircraft information and images provided in this report for your own purposes provided the data is correctly attributed to Plane Finder. We ask that you please credit Plane Finder and link to planefinder.net in close proximity to the content.

Optionally one of the following logos (no smaller then 150x24px) can be used and must link to planefinder.net

Embedding the Plane Finder map

You are welcome to embed the Plane Finder playback map on your website to offer visitors a more interactive experience. We suggest using the following HTML code:

<iframe src="//planefinder.net/data/report/9W66-VT-JBS-7700-squawk-2017-09-20/map" width="800" height="600" seamless="seamless"></iframe>

Where our data comes from

Plane Finder has a global network of data feeds and antenna radars that receive data broadcast directly from aircraft. The primary technologies used are ADS-B and MLAT. We also show feeds from the FAA and a FLARM glider feed.

Click here to find out more about the Plane Finder network.

How we collect our data